Time;durP1;ratioP1;P1;durP2;ratioP2;P2;SDS_P1;SDS_P2;PMS_P1;PMS_P2;Temp;Humidity;BMP_temperature;BMP_pressure;BME280_temperature;BME280_humidity;BME280_pressure;Samples;Min_cycle;Max_cycle;Signal;HPM_P1;HPM_P2
2022/04/13 00:00:42;;;;;;;33.97;18.93;;;;;;;;;;750797;184;926740;-62
2022/04/13 00:03:08;;;;;;;27.83;16.70;;;;;;;;;;766132;183;918631;-63
2022/04/13 00:05:34;;;;;;;23.90;15.70;;;;;;;;;;763994;183;919579;-62
2022/04/13 00:08:00;;;;;;;27.93;16.43;;;;;;;;;;763902;183;919100;-63
2022/04/13 00:10:25;;;;;;;28.40;15.05;;;;;;;;;;758772;183;919137;-62
2022/04/13 00:12:51;;;;;;;25.00;15.57;;;;;;;;;;753928;184;919450;-63
2022/04/13 00:15:17;;;;;;;23.37;15.13;;;;;;;;;;755583;183;918880;-63
2022/04/13 00:17:43;;;;;;;31.13;15.10;;;;;;;;;;760842;183;919445;-63
2022/04/13 00:20:09;;;;;;;26.70;16.07;;;;;;;;;;759522;184;919081;-63
2022/04/13 00:22:35;;;;;;;27.13;16.90;;;;;;;;;;752456;184;919965;-63
2022/04/13 00:25:01;;;;;;;36.70;18.07;;;;;;;;;;753867;183;918987;-63
2022/04/13 00:27:27;;;;;;;29.42;16.35;;;;;;;;;;759103;184;918976;-62
2022/04/13 00:29:53;;;;;;;25.30;16.90;;;;;;;;;;761298;184;918942;-62
2022/04/13 00:32:18;;;;;;;24.93;15.60;;;;;;;;;;761465;183;919584;-62
2022/04/13 00:34:44;;;;;;;25.37;16.70;;;;;;;;;;763014;184;919154;-62
2022/04/13 00:37:10;;;;;;;26.37;16.47;;;;;;;;;;756847;184;918914;-61
2022/04/13 00:39:36;;;;;;;19.97;14.33;;;;;;;;;;757796;184;919178;-61
2022/04/13 00:42:02;;;;;;;23.70;14.63;;;;;;;;;;750563;184;918324;-62
2022/04/13 00:44:28;;;;;;;23.10;15.63;;;;;;;;;;762366;183;919937;-62
2022/04/13 00:46:54;;;;;;;20.23;14.30;;;;;;;;;;757424;183;919327;-61
2022/04/13 00:49:20;;;;;;;25.07;15.17;;;;;;;;;;758576;183;923152;-61
2022/04/13 00:51:46;;;;;;;29.03;15.00;;;;;;;;;;761902;184;918913;-62
2022/04/13 00:54:11;;;;;;;22.53;15.30;;;;;;;;;;757308;183;919934;-62
2022/04/13 00:56:37;;;;;;;29.12;16.15;;;;;;;;;;751582;185;918822;-63
2022/04/13 00:59:04;;;;;;;23.10;15.63;;;;;;;;;;753942;184;918443;-62
2022/04/13 01:01:30;;;;;;;23.67;13.38;;;;;;;;;;757096;184;918767;-62
2022/04/13 01:03:56;;;;;;;24.87;15.37;;;;;;;;;;755969;184;919157;-62
2022/04/13 01:06:22;;;;;;;26.03;17.40;;;;;;;;;;749296;184;920465;-62
2022/04/13 01:08:48;;;;;;;22.73;15.40;;;;;;;;;;767383;182;918895;-62
2022/04/13 01:11:14;;;;;;;27.10;15.97;;;;;;;;;;758378;184;919466;-62
2022/04/13 01:13:40;;;;;;;21.67;14.90;;;;;;;;;;761266;182;918747;-63
2022/04/13 01:16:06;;;;;;;22.70;14.60;;;;;;;;;;765072;184;917978;-62
2022/04/13 01:18:32;;;;;;;32.78;16.95;;;;;;;;;;756657;184;1020002;-63
2022/04/13 01:20:58;;;;;;;23.80;15.67;;;;;;;;;;760655;183;919985;-61
2022/04/13 01:23:23;;;;;;;26.00;15.17;;;;;;;;;;759583;184;914893;-62
2022/04/13 01:25:50;;;;;;;25.67;15.20;;;;;;;;;;753679;184;916338;-62
2022/04/13 01:28:16;;;;;;;26.97;13.93;;;;;;;;;;760390;184;916448;-62
2022/04/13 01:30:42;;;;;;;25.73;14.00;;;;;;;;;;757602;184;919263;-62
2022/04/13 01:33:08;;;;;;;24.17;13.70;;;;;;;;;;741585;190;919748;-62
2022/04/13 01:35:33;;;;;;;23.03;13.53;;;;;;;;;;757138;184;918770;-61
2022/04/13 01:37:59;;;;;;;19.92;13.10;;;;;;;;;;757563;184;919595;-62
2022/04/13 01:40:25;;;;;;;20.70;13.60;;;;;;;;;;768476;183;921582;-62
2022/04/13 01:42:51;;;;;;;31.83;16.40;;;;;;;;;;753801;183;919659;-62
2022/04/13 01:45:20;;;;;;;33.08;18.67;;;;;;;;;;755491;184;919117;-62
2022/04/13 01:47:47;;;;;;;27.07;17.50;;;;;;;;;;761130;183;919179;-62
2022/04/13 01:50:13;;;;;;;32.97;18.97;;;;;;;;;;756431;184;929562;-62
2022/04/13 01:52:38;;;;;;;27.57;17.37;;;;;;;;;;752743;184;919326;-62
2022/04/13 01:55:04;;;;;;;30.88;17.60;;;;;;;;;;756132;184;919089;-61
2022/04/13 01:57:30;;;;;;;26.70;17.77;;;;;;;;;;755044;185;918858;-61
2022/04/13 01:59:56;;;;;;;25.40;15.40;;;;;;;;;;753862;184;918957;-62
2022/04/13 02:02:22;;;;;;;32.80;16.00;;;;;;;;;;758864;183;919216;-62
2022/04/13 02:04:48;;;;;;;19.47;14.30;;;;;;;;;;764622;184;918935;-61
2022/04/13 02:07:14;;;;;;;25.63;16.63;;;;;;;;;;757230;184;918434;-62
2022/04/13 02:09:40;;;;;;;24.77;16.73;;;;;;;;;;757053;183;919025;-62
2022/04/13 02:12:06;;;;;;;27.70;18.03;;;;;;;;;;761376;183;918269;-62
2022/04/13 02:14:32;;;;;;;29.92;17.40;;;;;;;;;;757613;185;918619;-62
2022/04/13 02:16:58;;;;;;;25.03;15.77;;;;;;;;;;758561;183;919610;-62
2022/04/13 02:19:24;;;;;;;26.23;14.60;;;;;;;;;;762564;182;919643;-61
2022/04/13 02:21:50;;;;;;;23.20;14.73;;;;;;;;;;766924;183;919440;-62
2022/04/13 02:24:15;;;;;;;24.63;15.87;;;;;;;;;;757148;183;920259;-62
2022/04/13 02:26:41;;;;;;;19.90;13.80;;;;;;;;;;756178;183;919232;-62
2022/04/13 02:29:07;;;;;;;22.00;13.60;;;;;;;;;;765083;184;919072;-63
2022/04/13 02:31:33;;;;;;;31.20;16.37;;;;;;;;;;755187;184;920420;-63
2022/04/13 02:33:59;;;;;;;22.83;13.73;;;;;;;;;;753814;183;918922;-63
2022/04/13 02:36:25;;;;;;;18.03;13.77;;;;;;;;;;758394;184;919203;-62
2022/04/13 02:38:51;;;;;;;15.77;10.45;;;;;;;;;;757369;184;919454;-62
2022/04/13 02:41:16;;;;;;;26.40;14.87;;;;;;;;;;749748;184;1020293;-62
2022/04/13 02:43:42;;;;;;;17.20;11.60;;;;;;;;;;750424;184;918450;-61
2022/04/13 02:46:08;;;;;;;27.33;11.70;;;;;;;;;;744158;188;917703;-63
2022/04/13 02:48:34;;;;;;;21.00;11.43;;;;;;;;;;726620;192;919192;-62
2022/04/13 02:51:00;;;;;;;16.45;10.90;;;;;;;;;;753965;184;919417;-63
2022/04/13 02:53:26;;;;;;;18.83;10.90;;;;;;;;;;763882;183;918528;-62
2022/04/13 02:55:51;;;;;;;16.43;11.50;;;;;;;;;;756290;185;919466;-63
2022/04/13 02:58:17;;;;;;;16.70;11.30;;;;;;;;;;758864;183;922552;-62
2022/04/13 03:00:43;;;;;;;22.43;12.30;;;;;;;;;;759595;184;918663;-62
2022/04/13 03:03:09;;;;;;;18.80;12.20;;;;;;;;;;752999;183;922240;-62
2022/04/13 03:05:35;;;;;;;15.77;11.33;;;;;;;;;;754834;184;916788;-62
2022/04/13 03:08:01;;;;;;;22.63;13.60;;;;;;;;;;761849;183;639483;-63
2022/04/13 03:10:26;;;;;;;22.42;12.60;;;;;;;;;;756878;183;919264;-62
2022/04/13 03:12:52;;;;;;;22.70;13.50;;;;;;;;;;753309;183;1020103;-62
2022/04/13 03:15:22;;;;;;;28.93;18.53;;;;;;;;;;752425;183;918523;-64
2022/04/13 03:17:44;;;;;;;22.08;13.90;;;;;;;;;;758938;183;919077;-62
2022/04/13 03:20:10;;;;;;;23.93;14.83;;;;;;;;;;753732;184;920263;-62
2022/04/13 03:22:36;;;;;;;39.53;22.20;;;;;;;;;;752413;183;919504;-62
2022/04/13 03:25:02;;;;;;;91.37;44.60;;;;;;;;;;757871;183;919818;-61
2022/04/13 03:27:28;;;;;;;22.55;13.20;;;;;;;;;;755199;183;919695;-62
2022/04/13 03:29:54;;;;;;;22.93;17.97;;;;;;;;;;758015;182;883749;-63
2022/04/13 03:32:20;;;;;;;20.83;14.23;;;;;;;;;;757038;183;1017960;-62
2022/04/13 03:34:46;;;;;;;21.60;13.40;;;;;;;;;;757084;182;918941;-64
2022/04/13 03:37:12;;;;;;;21.50;14.80;;;;;;;;;;753540;183;916447;-63
2022/04/13 03:39:37;;;;;;;29.60;17.90;;;;;;;;;;754449;183;1017962;-62
2022/04/13 03:42:03;;;;;;;20.93;13.80;;;;;;;;;;737489;190;916477;-62
2022/04/13 03:44:29;;;;;;;15.63;12.00;;;;;;;;;;749457;184;915008;-62
2022/04/13 03:46:55;;;;;;;18.77;13.13;;;;;;;;;;747273;184;930007;-62
2022/04/13 03:49:21;;;;;;;20.20;12.93;;;;;;;;;;759848;184;913960;-63
2022/04/13 03:51:47;;;;;;;15.27;10.53;;;;;;;;;;746541;184;922760;-63
2022/04/13 03:54:13;;;;;;;22.57;12.87;;;;;;;;;;747644;184;919253;-62
2022/04/13 03:56:39;;;;;;;21.57;13.23;;;;;;;;;;758715;180;918944;-62
2022/04/13 03:59:04;;;;;;;29.00;12.23;;;;;;;;;;756240;184;919200;-63
2022/04/13 04:01:31;;;;;;;20.17;11.70;;;;;;;;;;757411;183;915195;-62
2022/04/13 04:03:57;;;;;;;31.90;16.37;;;;;;;;;;757967;183;915880;-62
2022/04/13 04:06:23;;;;;;;29.27;17.37;;;;;;;;;;736967;190;924028;-63
2022/04/13 04:08:49;;;;;;;29.23;16.73;;;;;;;;;;759649;182;917197;-63
2022/04/13 04:11:14;;;;;;;16.17;11.23;;;;;;;;;;757436;184;632136;-63
2022/04/13 04:13:40;;;;;;;23.70;14.70;;;;;;;;;;763462;184;628849;-63
2022/04/13 04:16:06;;;;;;;19.30;13.83;;;;;;;;;;763801;183;622295;-63
2022/04/13 04:18:32;;;;;;;19.40;11.60;;;;;;;;;;760778;183;640359;-63
2022/04/13 04:20:58;;;;;;;22.83;12.90;;;;;;;;;;761428;183;626770;-62
2022/04/13 04:23:24;;;;;;;25.60;15.57;;;;;;;;;;758453;183;918787;-63
2022/04/13 04:25:49;;;;;;;22.57;15.07;;;;;;;;;;759564;183;919427;-62
2022/04/13 04:28:15;;;;;;;30.77;14.30;;;;;;;;;;758749;184;889668;-63
2022/04/13 04:30:41;;;;;;;29.70;17.60;;;;;;;;;;758420;183;640775;-63
2022/04/13 04:33:08;;;;;;;28.93;14.47;;;;;;;;;;752232;186;617099;-63
2022/04/13 04:35:34;;;;;;;28.50;16.10;;;;;;;;;;764660;183;632005;-62
2022/04/13 04:38:00;;;;;;;22.57;14.87;;;;;;;;;;759288;184;673805;-62
2022/04/13 04:40:26;;;;;;;26.57;14.00;;;;;;;;;;760233;182;625017;-62
2022/04/13 04:42:52;;;;;;;21.33;13.93;;;;;;;;;;759005;182;646114;-64
2022/04/13 04:45:19;;;;;;;28.00;16.10;;;;;;;;;;768851;182;627031;-63
2022/04/13 04:47:43;;;;;;;30.03;17.97;;;;;;;;;;761834;183;618146;-62
2022/04/13 04:50:10;;;;;;;21.97;12.40;;;;;;;;;;758475;184;623200;-63
2022/04/13 04:52:35;;;;;;;23.17;13.83;;;;;;;;;;761617;183;642725;-62
2022/04/13 04:55:01;;;;;;;20.70;14.05;;;;;;;;;;757625;184;919725;-63
2022/04/13 04:57:28;;;;;;;51.77;30.10;;;;;;;;;;756782;184;924125;-63
2022/04/13 04:59:53;;;;;;;40.47;25.67;;;;;;;;;;757027;183;915643;-64
2022/04/13 05:02:18;;;;;;;28.70;18.23;;;;;;;;;;760641;183;915925;-63
2022/04/13 05:04:44;;;;;;;23.90;16.80;;;;;;;;;;756371;184;917174;-63
2022/04/13 05:07:10;;;;;;;25.80;14.97;;;;;;;;;;752021;184;918513;-63
2022/04/13 05:09:36;;;;;;;18.80;14.60;;;;;;;;;;759111;184;917819;-61
2022/04/13 05:12:02;;;;;;;22.27;12.93;;;;;;;;;;759029;183;918534;-62
2022/04/13 05:14:29;;;;;;;21.75;14.98;;;;;;;;;;756242;183;919048;-63
2022/04/13 05:16:54;;;;;;;21.13;14.13;;;;;;;;;;756762;184;918054;-63
2022/04/13 05:19:19;;;;;;;20.13;12.80;;;;;;;;;;755542;184;918585;-63
2022/04/13 05:21:45;;;;;;;20.23;11.95;;;;;;;;;;755107;184;920267;-63
2022/04/13 05:24:11;;;;;;;25.57;13.97;;;;;;;;;;756191;184;918709;-62
2022/04/13 05:26:38;;;;;;;18.70;12.73;;;;;;;;;;745674;187;917293;-62
2022/04/13 05:29:03;;;;;;;19.87;11.40;;;;;;;;;;731500;190;934599;-62
2022/04/13 05:31:29;;;;;;;22.70;16.17;;;;;;;;;;754373;183;919924;-62
2022/04/13 05:33:55;;;;;;;21.40;15.23;;;;;;;;;;763398;183;869289;-63
2022/04/13 05:36:21;;;;;;;18.73;12.90;;;;;;;;;;750027;184;919791;-63
2022/04/13 05:38:46;;;;;;;23.52;12.02;;;;;;;;;;754830;184;1021151;-64
2022/04/13 05:41:12;;;;;;;20.40;11.27;;;;;;;;;;762270;183;919126;-63
2022/04/13 05:43:38;;;;;;;21.57;12.07;;;;;;;;;;758203;183;917460;-62
2022/04/13 05:46:04;;;;;;;17.67;10.67;;;;;;;;;;754040;184;925870;-62
2022/04/13 05:48:30;;;;;;;16.30;11.60;;;;;;;;;;754406;184;914183;-63
2022/04/13 05:50:56;;;;;;;16.80;10.33;;;;;;;;;;757218;183;1125992;-63
2022/04/13 05:53:22;;;;;;;21.40;11.03;;;;;;;;;;761037;181;920316;-61
2022/04/13 05:55:49;;;;;;;15.38;9.90;;;;;;;;;;751171;184;919434;-63
2022/04/13 05:58:13;;;;;;;20.33;10.37;;;;;;;;;;761744;182;918641;-62
2022/04/13 06:00:39;;;;;;;14.10;10.40;;;;;;;;;;757916;183;918879;-63
2022/04/13 06:03:05;;;;;;;14.00;8.27;;;;;;;;;;765331;183;919916;-63
2022/04/13 06:05:31;;;;;;;16.80;10.50;;;;;;;;;;768652;183;920236;-63
2022/04/13 06:07:57;;;;;;;18.07;10.57;;;;;;;;;;758949;184;920248;-63
2022/04/13 06:10:23;;;;;;;15.27;10.10;;;;;;;;;;754932;181;919948;-63
2022/04/13 06:12:48;;;;;;;15.40;10.27;;;;;;;;;;754503;184;931183;-64
2022/04/13 06:15:14;;;;;;;14.57;9.67;;;;;;;;;;749511;183;920122;-63
2022/04/13 06:17:40;;;;;;;14.67;8.57;;;;;;;;;;754622;184;1013025;-63
2022/04/13 06:20:07;;;;;;;18.13;11.10;;;;;;;;;;753157;184;919280;-63
2022/04/13 06:22:32;;;;;;;15.23;8.80;;;;;;;;;;764139;184;918147;-63
2022/04/13 06:24:58;;;;;;;19.67;11.23;;;;;;;;;;759735;184;919146;-62
2022/04/13 06:27:24;;;;;;;14.10;10.37;;;;;;;;;;760275;184;1021416;-64
2022/04/13 06:29:49;;;;;;;15.88;8.43;;;;;;;;;;764040;184;918926;-63
2022/04/13 06:32:15;;;;;;;18.87;10.60;;;;;;;;;;757305;184;918402;-63
2022/04/13 06:34:41;;;;;;;14.40;9.23;;;;;;;;;;757979;184;918498;-65
2022/04/13 06:37:07;;;;;;;14.02;8.07;;;;;;;;;;758754;184;915953;-64
2022/04/13 06:39:33;;;;;;;19.50;9.63;;;;;;;;;;756265;184;920085;-63
2022/04/13 06:41:59;;;;;;;18.80;9.83;;;;;;;;;;753340;184;918398;-63
2022/04/13 06:44:25;;;;;;;13.83;7.90;;;;;;;;;;748718;184;920790;-62
2022/04/13 06:46:51;;;;;;;14.97;7.57;;;;;;;;;;760756;183;919298;-63
2022/04/13 06:49:16;;;;;;;12.60;7.57;;;;;;;;;;752679;183;919505;-62
2022/04/13 06:51:42;;;;;;;13.40;9.10;;;;;;;;;;754336;185;1019668;-63
2022/04/13 06:54:08;;;;;;;14.70;8.30;;;;;;;;;;764740;184;919214;-63
2022/04/13 06:56:34;;;;;;;11.65;7.45;;;;;;;;;;761977;184;918752;-64
2022/04/13 06:59:00;;;;;;;15.20;8.43;;;;;;;;;;761005;183;1021170;-64
2022/04/13 07:01:26;;;;;;;11.37;7.73;;;;;;;;;;757779;183;923134;-63
2022/04/13 07:03:52;;;;;;;13.30;8.27;;;;;;;;;;756329;182;919541;-63
2022/04/13 07:06:17;;;;;;;20.13;8.40;;;;;;;;;;754825;183;919740;-63
2022/04/13 07:08:43;;;;;;;12.70;8.80;;;;;;;;;;762321;182;918348;-63
2022/04/13 07:11:09;;;;;;;17.53;8.53;;;;;;;;;;758487;184;918966;-63
2022/04/13 07:13:35;;;;;;;15.63;8.47;;;;;;;;;;753208;184;918037;-64
2022/04/13 07:16:01;;;;;;;17.77;8.10;;;;;;;;;;753819;184;919983;-64
2022/04/13 07:18:27;;;;;;;12.50;8.20;;;;;;;;;;763272;184;919456;-64
2022/04/13 07:20:52;;;;;;;11.80;8.00;;;;;;;;;;757771;184;1020005;-64
2022/04/13 07:23:18;;;;;;;14.50;7.30;;;;;;;;;;758819;183;918531;-64
2022/04/13 07:25:44;;;;;;;11.83;8.40;;;;;;;;;;756390;184;918304;-64
2022/04/13 07:28:10;;;;;;;14.10;6.47;;;;;;;;;;759148;183;919524;-64
2022/04/13 07:30:36;;;;;;;12.40;7.43;;;;;;;;;;759696;183;918987;-64
2022/04/13 07:33:02;;;;;;;16.50;7.80;;;;;;;;;;760223;184;918791;-63
2022/04/13 07:35:28;;;;;;;13.50;8.90;;;;;;;;;;755851;184;1023038;-66
2022/04/13 07:37:53;;;;;;;15.50;9.57;;;;;;;;;;756046;183;919071;-65
2022/04/13 07:40:19;;;;;;;13.40;7.70;;;;;;;;;;755055;182;920058;-64
2022/04/13 07:42:45;;;;;;;13.90;7.90;;;;;;;;;;754615;185;910148;-64
2022/04/13 07:45:11;;;;;;;12.30;7.13;;;;;;;;;;749129;184;918767;-64
2022/04/13 07:47:37;;;;;;;12.70;8.88;;;;;;;;;;752127;184;918789;-65
2022/04/13 07:50:03;;;;;;;13.17;8.33;;;;;;;;;;760589;184;916734;-64
2022/04/13 07:52:29;;;;;;;15.03;8.30;;;;;;;;;;756093;184;915465;-65
2022/04/13 07:54:55;;;;;;;13.50;8.00;;;;;;;;;;748953;185;916410;-65
2022/04/13 07:57:21;;;;;;;19.27;7.87;;;;;;;;;;756838;185;916031;-66
2022/04/13 07:59:46;;;;;;;12.60;8.70;;;;;;;;;;758651;184;920263;-65
2022/04/13 08:02:12;;;;;;;13.07;8.30;;;;;;;;;;758378;183;919645;-66
2022/04/13 08:04:38;;;;;;;15.93;7.27;;;;;;;;;;760997;183;918765;-65
2022/04/13 08:07:04;;;;;;;22.00;19.30;;;;;;;;;;763665;183;919031;-65
2022/04/13 08:09:30;;;;;;;12.80;6.57;;;;;;;;;;758172;184;919302;-65
2022/04/13 08:11:56;;;;;;;13.52;7.90;;;;;;;;;;760242;183;921018;-65
2022/04/13 08:14:22;;;;;;;16.20;8.17;;;;;;;;;;765654;183;919752;-65
2022/04/13 08:16:47;;;;;;;12.77;7.10;;;;;;;;;;756364;180;919647;-65
2022/04/13 08:19:13;;;;;;;19.93;8.53;;;;;;;;;;769157;182;918778;-66
2022/04/13 08:21:39;;;;;;;13.60;7.60;;;;;;;;;;771282;182;627218;-66
2022/04/13 08:24:05;;;;;;;11.30;8.07;;;;;;;;;;767819;183;618799;-65
2022/04/13 08:26:31;;;;;;;10.40;6.73;;;;;;;;;;767284;183;628153;-66
2022/04/13 08:28:57;;;;;;;15.83;8.10;;;;;;;;;;766909;183;624854;-65
2022/04/13 08:31:23;;;;;;;11.70;6.83;;;;;;;;;;765491;183;633479;-66
2022/04/13 08:33:48;;;;;;;14.20;6.30;;;;;;;;;;749006;183;923728;-66
2022/04/13 08:36:14;;;;;;;18.77;10.30;;;;;;;;;;749450;184;916429;-66
2022/04/13 08:38:40;;;;;;;12.57;6.30;;;;;;;;;;754766;184;915204;-66
2022/04/13 08:41:07;;;;;;;13.53;7.50;;;;;;;;;;747436;184;916845;-66
2022/04/13 08:43:33;;;;;;;13.50;7.33;;;;;;;;;;754760;184;1019270;-67
2022/04/13 08:45:59;;;;;;;12.03;6.97;;;;;;;;;;758085;184;914427;-66
2022/04/13 08:48:25;;;;;;;11.53;6.50;;;;;;;;;;751093;184;915854;-65
2022/04/13 08:50:51;;;;;;;10.27;5.63;;;;;;;;;;752006;184;914541;-66
2022/04/13 08:53:18;;;;;;;14.57;7.70;;;;;;;;;;755044;184;917774;-66
2022/04/13 08:55:45;;;;;;;11.13;7.10;;;;;;;;;;758102;184;917559;-66
2022/04/13 08:58:14;;;;;;;11.83;7.20;;;;;;;;;;747455;184;916779;-66
2022/04/13 09:00:40;;;;;;;11.03;7.13;;;;;;;;;;752159;184;911865;-66
2022/04/13 09:03:10;;;;;;;15.43;7.10;;;;;;;;;;754546;184;916467;-67
2022/04/13 09:05:35;;;;;;;11.00;6.60;;;;;;;;;;748185;183;916509;-66
2022/04/13 09:08:05;;;;;;;12.77;7.20;;;;;;;;;;754542;183;914616;-67
2022/04/13 09:10:28;;;;;;;31.90;11.20;;;;;;;;;;746247;186;918978;-67
2022/04/13 09:12:54;;;;;;;16.83;7.80;;;;;;;;;;761603;183;918791;-67
2022/04/13 09:15:20;;;;;;;9.70;6.43;;;;;;;;;;743469;187;918911;-67
2022/04/13 09:17:45;;;;;;;15.03;7.50;;;;;;;;;;747896;186;924535;-67
2022/04/13 09:20:11;;;;;;;13.98;7.75;;;;;;;;;;764152;184;919367;-68
2022/04/13 09:22:37;;;;;;;11.17;7.50;;;;;;;;;;754153;183;919386;-67
2022/04/13 09:25:04;;;;;;;12.80;7.33;;;;;;;;;;754046;184;918658;-67
2022/04/13 09:27:29;;;;;;;14.43;7.03;;;;;;;;;;762463;183;918835;-67
2022/04/13 09:29:55;;;;;;;11.77;7.50;;;;;;;;;;757700;183;919071;-67
2022/04/13 09:32:21;;;;;;;13.60;7.53;;;;;;;;;;744586;186;918054;-68
2022/04/13 09:34:47;;;;;;;13.63;7.37;;;;;;;;;;758390;182;1014687;-67
2022/04/13 09:37:13;;;;;;;13.50;7.30;;;;;;;;;;757441;185;918424;-67
2022/04/13 09:39:39;;;;;;;11.40;6.77;;;;;;;;;;761357;182;919211;-67
2022/04/13 09:42:05;;;;;;;13.55;6.82;;;;;;;;;;754897;184;919343;-67
2022/04/13 09:44:32;;;;;;;10.20;6.30;;;;;;;;;;765342;183;919098;-67
2022/04/13 09:47:02;;;;;;;13.60;8.17;;;;;;;;;;753935;184;918933;-67
2022/04/13 09:49:28;;;;;;;12.70;6.20;;;;;;;;;;757240;183;917993;-68
2022/04/13 09:51:54;;;;;;;12.37;7.05;;;;;;;;;;750966;184;919623;-68
2022/04/13 09:54:20;;;;;;;11.47;7.10;;;;;;;;;;762198;183;917346;-67
2022/04/13 09:56:48;;;;;;;11.30;7.00;;;;;;;;;;757124;183;921842;-67
2022/04/13 09:59:20;;;;;;;13.93;7.57;;;;;;;;;;752993;184;919546;-69
2022/04/13 10:01:46;;;;;;;11.77;6.10;;;;;;;;;;760720;183;918150;-68
2022/04/13 10:04:12;;;;;;;11.07;6.30;;;;;;;;;;753252;184;919305;-68
2022/04/13 10:06:37;;;;;;;10.65;6.55;;;;;;;;;;746258;184;918906;-68
2022/04/13 10:09:05;;;;;;;12.00;5.80;;;;;;;;;;751295;183;919500;-69
2022/04/13 10:11:32;;;;;;;10.67;6.17;;;;;;;;;;759842;183;919304;-68
2022/04/13 10:14:01;;;;;;;12.70;6.70;;;;;;;;;;758311;184;919035;-68
2022/04/13 10:16:27;;;;;;;8.43;5.50;;;;;;;;;;757981;184;919145;-68
2022/04/13 10:18:55;;;;;;;10.50;5.90;;;;;;;;;;764011;184;876149;-68
2022/04/13 10:21:37;;;;;;;14.60;7.60;;;;;;;;;;758875;184;919831;-69
2022/04/13 10:24:03;;;;;;;10.13;5.67;;;;;;;;;;753376;183;919546;-68
2022/04/13 10:26:29;;;;;;;11.90;7.97;;;;;;;;;;750854;180;918638;-68
2022/04/13 10:28:55;;;;;;;11.50;6.93;;;;;;;;;;750434;184;919637;-69
2022/04/13 10:31:21;;;;;;;10.98;6.28;;;;;;;;;;753744;185;922652;-69
2022/04/13 10:33:46;;;;;;;12.40;6.40;;;;;;;;;;725724;190;1122813;-69
2022/04/13 10:36:12;;;;;;;11.90;7.20;;;;;;;;;;750201;183;919927;-69
2022/04/13 10:38:38;;;;;;;8.60;5.70;;;;;;;;;;756919;182;919210;-67
2022/04/13 10:41:04;;;;;;;14.63;6.90;;;;;;;;;;756854;182;918063;-69
2022/04/13 10:43:30;;;;;;;10.70;7.15;;;;;;;;;;758883;183;920280;-67
2022/04/13 10:45:56;;;;;;;17.73;6.63;;;;;;;;;;768064;182;905849;-69
2022/04/13 10:48:22;;;;;;;8.77;5.90;;;;;;;;;;757526;183;909312;-70
2022/04/13 10:50:48;;;;;;;9.97;5.50;;;;;;;;;;756224;184;918910;-69
2022/04/13 10:53:20;;;;;;;11.00;6.90;;;;;;;;;;757056;184;1018861;-69
2022/04/13 10:55:44;;;;;;;9.27;5.87;;;;;;;;;;760078;184;918073;-69
2022/04/13 10:58:11;;;;;;;14.93;7.03;;;;;;;;;;759574;184;920734;-70
2022/04/13 11:00:36;;;;;;;10.60;5.50;;;;;;;;;;759991;184;918272;-69
2022/04/13 11:03:03;;;;;;;9.30;5.87;;;;;;;;;;758342;183;920387;-70
2022/04/13 11:05:28;;;;;;;11.03;6.27;;;;;;;;;;758997;183;918344;-69
2022/04/13 11:07:56;;;;;;;11.77;6.77;;;;;;;;;;759517;183;920153;-68
2022/04/13 11:10:22;;;;;;;13.47;5.90;;;;;;;;;;756178;184;920809;-69
2022/04/13 11:12:47;;;;;;;11.23;5.30;;;;;;;;;;756410;183;916458;-69
2022/04/13 11:15:13;;;;;;;11.93;6.23;;;;;;;;;;756041;183;917209;-70
2022/04/13 11:17:40;;;;;;;10.47;6.10;;;;;;;;;;755116;184;916785;-69
2022/04/13 11:20:11;;;;;;;10.53;5.80;;;;;;;;;;754246;184;1018047;-69
2022/04/13 11:22:37;;;;;;;11.93;6.00;;;;;;;;;;758181;183;911172;-69
2022/04/13 11:25:03;;;;;;;13.57;5.67;;;;;;;;;;757688;184;917178;-68
2022/04/13 11:27:29;;;;;;;10.33;6.10;;;;;;;;;;759387;183;1021422;-69
2022/04/13 11:29:57;;;;;;;8.70;5.93;;;;;;;;;;760194;183;914649;-69
2022/04/13 11:32:24;;;;;;;14.38;5.53;;;;;;;;;;751478;183;919249;-68
2022/04/13 11:34:58;;;;;;;12.00;5.33;;;;;;;;;;753486;184;919201;-70
2022/04/13 11:37:24;;;;;;;12.87;5.30;;;;;;;;;;753256;184;919501;-69
2022/04/13 11:39:50;;;;;;;7.63;5.10;;;;;;;;;;751753;185;919682;-68
2022/04/13 11:42:17;;;;;;;9.60;5.97;;;;;;;;;;758245;183;918933;-69
2022/04/13 11:44:47;;;;;;;10.87;5.63;;;;;;;;;;755753;183;918892;-70
2022/04/13 11:47:13;;;;;;;8.63;5.23;;;;;;;;;;757515;183;918481;-69
2022/04/13 11:49:39;;;;;;;8.00;5.30;;;;;;;;;;753531;183;937545;-70
2022/04/13 11:52:10;;;;;;;12.63;5.10;;;;;;;;;;746598;183;918432;-70
2022/04/13 11:54:42;;;;;;;10.10;4.77;;;;;;;;;;764579;182;917719;-69
2022/04/13 11:57:08;;;;;;;7.97;5.10;;;;;;;;;;766038;182;918099;-70
2022/04/13 11:59:50;;;;;;;9.97;5.10;;;;;;;;;;755621;184;918724;-69
2022/04/13 12:02:16;;;;;;;8.50;5.30;;;;;;;;;;739477;187;920026;-70
2022/04/13 12:04:46;;;;;;;9.80;6.07;;;;;;;;;;754893;184;919024;-70
2022/04/13 12:07:12;;;;;;;8.07;4.43;;;;;;;;;;752576;184;921528;-70
2022/04/13 12:09:37;;;;;;;8.13;5.10;;;;;;;;;;759434;184;918723;-70
2022/04/13 12:12:04;;;;;;;10.77;5.30;;;;;;;;;;756533;184;918300;-69
2022/04/13 12:14:33;;;;;;;8.90;5.30;;;;;;;;;;755675;184;918611;-69
2022/04/13 12:16:56;;;;;;;9.27;5.03;;;;;;;;;;761216;183;914686;-69
2022/04/13 12:19:22;;;;;;;7.72;4.50;;;;;;;;;;759207;183;917834;-69
2022/04/13 12:21:48;;;;;;;10.10;4.80;;;;;;;;;;759058;184;918463;-70
2022/04/13 12:24:14;;;;;;;7.30;4.60;;;;;;;;;;765859;183;917850;-69
2022/04/13 12:26:41;;;;;;;8.07;5.33;;;;;;;;;;756630;184;918974;-69
2022/04/13 12:29:11;;;;;;;7.63;4.87;;;;;;;;;;758814;183;920078;-71
2022/04/13 12:31:44;;;;;;;8.50;4.43;;;;;;;;;;752604;183;1020886;-70
2022/04/13 12:34:10;;;;;;;6.80;4.40;;;;;;;;;;752718;184;919155;-69
2022/04/13 12:36:36;;;;;;;12.23;4.80;;;;;;;;;;762290;184;619694;-69
2022/04/13 12:39:02;;;;;;;8.57;5.70;;;;;;;;;;753583;184;918261;-70
2022/04/13 12:41:27;;;;;;;10.70;5.10;;;;;;;;;;753034;184;918370;-70
2022/04/13 12:43:56;;;;;;;7.90;5.00;;;;;;;;;;759097;184;918480;-70
2022/04/13 12:46:20;;;;;;;7.23;4.27;;;;;;;;;;756781;184;918421;-70
2022/04/13 12:48:47;;;;;;;8.90;4.93;;;;;;;;;;756320;183;918632;-70
2022/04/13 12:51:13;;;;;;;13.33;5.03;;;;;;;;;;765841;183;1018231;-70
2022/04/13 12:53:40;;;;;;;9.48;5.57;;;;;;;;;;766898;183;917313;-71
2022/04/13 12:56:06;;;;;;;9.60;5.07;;;;;;;;;;757658;184;919078;-70
2022/04/13 12:58:31;;;;;;;8.37;5.13;;;;;;;;;;758260;184;919133;-70
2022/04/13 13:00:57;;;;;;;13.00;5.53;;;;;;;;;;757900;182;918582;-69
2022/04/13 13:03:23;;;;;;;7.70;4.00;;;;;;;;;;751512;183;919402;-69
2022/04/13 13:05:49;;;;;;;7.97;4.47;;;;;;;;;;749607;184;924714;-69
2022/04/13 13:08:15;;;;;;;9.80;4.80;;;;;;;;;;766086;182;918866;-69
2022/04/13 13:10:43;;;;;;;8.07;4.80;;;;;;;;;;765234;182;918986;-70
2022/04/13 13:13:23;;;;;;;10.03;5.00;;;;;;;;;;765030;183;920927;-71
2022/04/13 13:15:49;;;;;;;9.50;4.33;;;;;;;;;;753752;183;924605;-70
2022/04/13 13:18:15;;;;;;;8.30;4.73;;;;;;;;;;759579;184;918456;-71
2022/04/13 13:20:46;;;;;;;9.23;4.97;;;;;;;;;;757844;183;918172;-71
2022/04/13 13:23:12;;;;;;;10.53;5.50;;;;;;;;;;758296;183;919547;-71
2022/04/13 13:25:39;;;;;;;9.10;5.07;;;;;;;;;;752948;183;919399;-71
2022/04/13 13:28:05;;;;;;;9.03;4.97;;;;;;;;;;761428;184;918905;-70
2022/04/13 13:30:31;;;;;;;9.77;5.83;;;;;;;;;;754221;183;1042535;-71
2022/04/13 13:32:57;;;;;;;9.30;4.90;;;;;;;;;;758364;184;918388;-71
2022/04/13 13:35:23;;;;;;;7.43;5.20;;;;;;;;;;761718;184;920172;-70
2022/04/13 13:37:49;;;;;;;9.40;4.90;;;;;;;;;;750919;183;920671;-71
2022/04/13 13:40:20;;;;;;;9.57;5.53;;;;;;;;;;754074;184;918393;-70
2022/04/13 13:42:46;;;;;;;11.30;4.47;;;;;;;;;;753399;184;919671;-70
2022/04/13 13:45:15;;;;;;;11.87;5.60;;;;;;;;;;761929;184;920157;-70
2022/04/13 13:47:40;;;;;;;7.87;4.50;;;;;;;;;;757562;184;919023;-70
2022/04/13 13:50:06;;;;;;;8.60;5.20;;;;;;;;;;751173;184;919120;-71
2022/04/13 13:52:32;;;;;;;10.30;5.30;;;;;;;;;;758209;183;919011;-70
2022/04/13 13:54:57;;;;;;;10.75;5.53;;;;;;;;;;754124;183;918900;-71
2022/04/13 13:57:24;;;;;;;8.53;4.77;;;;;;;;;;757054;184;919323;-70
2022/04/13 13:59:49;;;;;;;8.70;5.43;;;;;;;;;;755057;183;918709;-70
2022/04/13 14:02:15;;;;;;;9.07;5.07;;;;;;;;;;747519;185;918546;-71
2022/04/13 14:04:41;;;;;;;9.93;5.50;;;;;;;;;;755550;183;919425;-70